Time;durP1;ratioP1;P1;durP2;ratioP2;P2;SDS_P1;SDS_P2;PMS_P1;PMS_P2;Temp;Humidity;BMP_temperature;BMP_pressure;BME280_temperature;BME280_humidity;BME280_pressure;Samples;Min_cycle;Max_cycle;Signal;HPM_P1;HPM_P2
2021/01/19 00:00:56;;;;;;;129.87;49.73;;;;;;;-9.94;66.81;99274.38;119781;1151;104497;-70
2021/01/19 00:03:23;;;;;;;124.07;50.73;;;;;;;-9.94;65.68;99276.95;119952;1151;104428;-70
2021/01/19 00:05:50;;;;;;;134.77;55.03;;;;;;;-9.93;65.94;99266.66;119956;1151;104438;-71
2021/01/19 00:08:17;;;;;;;135.17;52.43;;;;;;;-9.88;67.20;99270.17;121368;1151;104406;-70
2021/01/19 00:10:44;;;;;;;137.18;56.08;;;;;;;-9.85;65.92;99261.64;119969;1151;104467;-71
2021/01/19 00:13:19;;;;;;;134.80;52.50;;;;;;;-9.82;65.90;99260.80;119817;1151;104446;-70
2021/01/19 00:15:50;;;;;;;131.37;54.53;;;;;;;-9.79;66.84;99260.84;119895;1151;104462;-70
2021/01/19 00:18:18;;;;;;;129.57;48.87;;;;;;;-9.79;66.13;99260.84;119825;1153;104439;-70
2021/01/19 00:20:48;;;;;;;123.27;50.43;;;;;;;-9.78;66.00;99262.57;119966;1152;104491;-70
2021/01/19 00:23:16;;;;;;;134.53;54.67;;;;;;;-9.78;66.17;99263.42;120697;1151;105749;-69
2021/01/19 00:25:45;;;;;;;134.73;51.93;;;;;;;-9.77;66.04;99265.15;119780;1151;104464;-68
2021/01/19 00:28:13;;;;;;;131.90;53.20;;;;;;;-9.73;66.43;99256.62;120929;1151;104461;-69
2021/01/19 00:30:42;;;;;;;133.53;52.97;;;;;;;-9.72;66.14;99263.50;119938;1151;104380;-70
2021/01/19 00:33:15;;;;;;;132.00;49.13;;;;;;;-9.70;66.41;99257.50;119952;1151;104350;-71
2021/01/19 00:35:42;;;;;;;129.13;52.50;;;;;;;-9.71;66.28;99254.08;119955;1153;104372;-71
2021/01/19 00:38:13;;;;;;;132.10;49.93;;;;;;;-9.69;66.96;99251.52;119902;1151;104387;-69
2021/01/19 00:40:41;;;;;;;134.63;53.07;;;;;;;-9.67;67.07;99252.39;119942;1151;104374;-71
2021/01/19 00:43:08;;;;;;;125.18;52.30;;;;;;;-9.65;67.11;99250.70;120881;1151;104364;-69
2021/01/19 00:45:35;;;;;;;127.30;51.73;;;;;;;-9.63;65.90;99249.02;120346;1151;104346;-70
2021/01/19 00:48:02;;;;;;;125.87;47.97;;;;;;;-9.61;67.29;99247.32;119999;1151;104515;-69
2021/01/19 00:50:29;;;;;;;127.73;50.17;;;;;;;-9.57;67.33;99241.36;120249;1151;104965;-71
2021/01/19 00:52:56;;;;;;;118.63;47.03;;;;;;;-9.54;67.34;99243.09;119881;1151;104448;-69
2021/01/19 00:55:23;;;;;;;125.13;49.57;;;;;;;-9.54;67.61;99248.25;119983;1151;104448;-72
2021/01/19 00:57:50;;;;;;;115.43;47.00;;;;;;;-9.51;66.08;99237.98;119996;1151;104369;-70
2021/01/19 01:00:20;;;;;;;110.48;41.90;;;;;;;-9.52;66.05;99231.10;119877;1151;104377;-69
2021/01/19 01:02:47;;;;;;;109.10;45.00;;;;;;;-9.55;66.26;99233.64;120240;1151;104339;-71
2021/01/19 01:05:19;;;;;;;105.27;43.60;;;;;;;-9.57;66.36;99237.06;120016;1151;104452;-68
2021/01/19 01:07:46;;;;;;;113.20;45.93;;;;;;;-9.54;66.70;99235.37;120210;1151;104348;-70
2021/01/19 01:10:15;;;;;;;102.95;42.48;;;;;;;-9.54;67.28;99228.52;120404;1151;104416;-69
2021/01/19 01:12:44;;;;;;;108.03;41.90;;;;;;;-9.53;67.49;99229.38;120458;1150;104416;-68
2021/01/19 01:15:28;;;;;;;95.97;38.17;;;;;;;-9.53;66.05;99217.38;119953;1153;104958;-68
2021/01/19 01:17:55;;;;;;;103.67;39.25;;;;;;;-9.53;67.12;99225.10;119903;1153;104425;-69
2021/01/19 01:20:22;;;;;;;105.60;39.30;;;;;;;-9.55;67.15;99226.80;119915;1151;104390;-69
2021/01/19 01:22:50;;;;;;;109.05;43.75;;;;;;;-9.54;66.88;99207.04;119954;1151;105035;-70
2021/01/19 01:25:21;;;;;;;101.20;38.33;;;;;;;-9.51;67.47;99207.95;119878;1151;104478;-71
2021/01/19 01:27:48;;;;;;;83.30;35.97;;;;;;;-9.47;67.18;99207.14;119856;1151;104439;-71
2021/01/19 01:30:18;;;;;;;88.57;33.33;;;;;;;-9.41;67.39;99196.03;120470;1151;104416;-70
2021/01/19 01:32:50;;;;;;;86.87;34.60;;;;;;;-9.44;66.74;99190.84;119885;1149;104468;-71
2021/01/19 01:35:22;;;;;;;98.90;38.30;;;;;;;-9.44;66.87;99198.56;120072;1151;104369;-69
2021/01/19 01:37:52;;;;;;;96.57;40.37;;;;;;;-9.40;67.32;99200.33;119861;1151;104410;-70
2021/01/19 01:40:26;;;;;;;83.35;32.15;;;;;;;-9.37;66.40;99187.48;119916;1151;104394;-70
2021/01/19 01:43:09;;;;;;;90.90;33.00;;;;;;;-9.37;66.90;99184.06;120290;1151;104442;-69
2021/01/19 01:45:44;;;;;;;83.77;34.10;;;;;;;-9.37;66.66;99189.21;120096;1151;104420;-70
2021/01/19 01:48:14;;;;;;;82.73;31.00;;;;;;;-9.37;67.44;99178.91;120077;1151;104612;-70
2021/01/19 01:50:41;;;;;;;82.40;30.73;;;;;;;-9.38;66.81;99183.18;119983;1151;104347;-67
2021/01/19 01:53:09;;;;;;;94.15;40.95;;;;;;;-9.37;67.69;99173.75;120591;1151;104377;-67
2021/01/19 01:55:42;;;;;;;97.30;37.67;;;;;;;-9.30;67.63;99183.24;119919;1151;104378;-70
2021/01/19 01:58:08;;;;;;;92.40;37.53;;;;;;;-9.27;67.66;99172.97;120192;1151;104402;-70
2021/01/19 02:00:35;;;;;;;89.15;34.35;;;;;;;-9.28;67.54;99161.81;119897;1151;104524;-71
2021/01/19 02:03:03;;;;;;;90.30;36.05;;;;;;;-9.25;67.41;99168.70;120153;1151;104370;-71
2021/01/19 02:05:30;;;;;;;75.15;30.12;;;;;;;-9.23;67.87;99167.00;119880;1151;104825;-70
2021/01/19 02:08:15;;;;;;;83.83;33.80;;;;;;;-9.21;66.95;99160.14;119888;1151;104394;-70
2021/01/19 02:10:57;;;;;;;100.37;37.50;;;;;;;-9.18;67.47;99155.02;120258;1151;104866;-70
2021/01/19 02:13:46;;;;;;;89.70;34.95;;;;;;;-9.15;66.84;99149.02;120067;1152;104508;-69
2021/01/19 02:16:43;;;;;;;86.00;34.87;;;;;;;-9.13;68.02;99155.05;119880;1152;104388;-70
2021/01/19 02:19:26;;;;;;;94.53;38.77;;;;;;;-9.07;68.06;99161.98;120794;1151;104399;-71
2021/01/19 02:22:17;;;;;;;92.07;37.00;;;;;;;-9.01;68.38;99154.30;119849;1151;104372;-71
2021/01/19 02:25:22;;;;;;;78.30;29.95;;;;;;;-8.98;66.75;99150.02;120421;1151;104374;-71
2021/01/19 02:28:25;;;;;;;79.50;33.27;;;;;;;-8.98;68.35;99147.45;119869;1151;104436;-67
2021/01/19 02:31:32;;;;;;;79.05;33.05;;;;;;;-8.91;67.40;99148.34;120105;1151;104372;-70
2021/01/19 02:34:15;;;;;;;88.73;37.23;;;;;;;-8.85;68.37;99152.70;119912;1151;104348;-68
2021/01/19 02:37:09;;;;;;;85.25;33.20;;;;;;;-8.84;67.57;99157.85;119996;1151;104397;-69
2021/01/19 02:40:05;;;;;;;75.90;33.77;;;;;;;-8.83;68.16;99143.27;120894;1151;104414;-70
2021/01/19 02:42:43;;;;;;;90.20;37.17;;;;;;;-8.78;67.06;99130.39;119984;1151;104555;-69
2021/01/19 02:45:14;;;;;;;75.87;30.53;;;;;;;-8.75;68.01;99149.30;119953;1153;104446;-69
2021/01/19 02:47:41;;;;;;;83.97;34.20;;;;;;;-8.74;68.12;99139.87;119925;1151;104358;-69
2021/01/19 02:50:10;;;;;;;89.65;33.08;;;;;;;-8.72;66.91;99133.02;119876;1151;104447;-70
2021/01/19 02:52:39;;;;;;;91.30;37.37;;;;;;;-8.72;68.42;99122.70;119967;1151;104423;-70
2021/01/19 02:55:10;;;;;;;84.50;34.43;;;;;;;-8.71;68.03;99125.27;120034;1151;104511;-70
2021/01/19 02:58:02;;;;;;;98.37;38.33;;;;;;;-8.67;67.88;99131.33;120755;1150;104339;-70
2021/01/19 03:00:50;;;;;;;78.20;31.33;;;;;;;-8.63;68.57;99125.34;119879;1151;104447;-70
2021/01/19 03:03:19;;;;;;;79.17;30.40;;;;;;;-8.58;68.29;99120.19;121079;1151;104345;-69
2021/01/19 03:05:51;;;;;;;78.20;32.15;;;;;;;-8.56;68.20;99121.91;120358;1151;104349;-69
2021/01/19 03:08:20;;;;;;;85.95;34.45;;;;;;;-8.55;67.85;99113.32;120052;1151;104495;-71
2021/01/19 03:10:50;;;;;;;89.65;38.30;;;;;;;-8.52;68.20;99097.02;120455;1151;104377;-69
2021/01/19 03:13:18;;;;;;;92.47;37.30;;;;;;;-8.49;67.97;99097.03;120007;1151;104471;-70
2021/01/19 03:15:45;;;;;;;83.33;33.77;;;;;;;-8.43;68.40;99093.58;119969;1151;104471;-69
2021/01/19 03:18:12;;;;;;;88.67;35.80;;;;;;;-8.39;68.08;99097.89;120027;1151;104443;-70
2021/01/19 03:20:40;;;;;;;85.93;33.83;;;;;;;-8.35;68.58;99084.16;119943;1151;104498;-69
2021/01/19 03:23:07;;;;;;;86.77;35.77;;;;;;;-8.31;68.09;99075.57;119924;1151;104386;-70
2021/01/19 03:25:34;;;;;;;82.33;35.53;;;;;;;-8.27;67.92;99082.47;119962;1151;104444;-70
2021/01/19 03:28:02;;;;;;;72.77;31.07;;;;;;;-8.23;67.89;99073.89;120290;1151;104371;-69
2021/01/19 03:30:29;;;;;;;68.03;26.13;;;;;;;-8.17;68.22;99072.19;120846;1151;104341;-69
2021/01/19 03:32:56;;;;;;;83.63;35.00;;;;;;;-8.15;68.21;99080.80;119871;1151;104499;-70
2021/01/19 03:35:23;;;;;;;80.87;32.87;;;;;;;-8.14;67.50;99073.05;119962;1151;104380;-68
2021/01/19 03:37:50;;;;;;;78.07;30.95;;;;;;;-8.13;68.31;99072.19;119962;1151;104914;-69
2021/01/19 03:40:17;;;;;;;75.97;32.23;;;;;;;-8.10;68.10;99073.90;119980;1151;104416;-69
2021/01/19 03:42:45;;;;;;;82.50;35.67;;;;;;;-8.04;68.23;99065.33;120025;1151;104378;-69
2021/01/19 03:45:13;;;;;;;68.30;28.02;;;;;;;-8.00;69.00;99061.91;119971;1151;104848;-70
2021/01/19 03:47:41;;;;;;;83.57;32.37;;;;;;;-8.01;68.11;99060.18;120870;1151;104387;-70
2021/01/19 03:50:12;;;;;;;76.30;31.27;;;;;;;-8.02;68.16;99059.30;120179;1151;104383;-70
2021/01/19 03:52:39;;;;;;;57.73;24.63;;;;;;;-7.97;67.89;99049.00;120110;1151;104376;-69
2021/01/19 03:55:09;;;;;;;80.77;31.20;;;;;;;-7.95;68.29;99044.70;119925;1151;104872;-70
2021/01/19 03:57:37;;;;;;;68.60;27.73;;;;;;;-7.91;68.55;99043.83;120416;1151;104347;-68
2021/01/19 04:00:14;;;;;;;66.87;28.73;;;;;;;-7.90;67.51;99050.71;120305;1151;104561;-67
2021/01/19 04:02:46;;;;;;;70.13;30.97;;;;;;;-7.92;67.46;99047.27;121665;1150;104345;-68
2021/01/19 04:05:13;;;;;;;74.17;31.10;;;;;;;-7.90;67.95;99044.70;119998;1152;104850;-68
2021/01/19 04:07:44;;;;;;;65.43;27.47;;;;;;;-7.87;68.39;99040.39;120002;1151;104436;-68
2021/01/19 04:10:15;;;;;;;73.63;29.90;;;;;;;-7.85;68.42;99030.92;120416;1151;104444;-67
2021/01/19 04:12:46;;;;;;;66.87;27.20;;;;;;;-7.83;67.84;99036.11;120013;1151;104447;-67
2021/01/19 04:15:15;;;;;;;74.90;31.60;;;;;;;-7.82;68.79;99028.34;119848;1151;104463;-70
2021/01/19 04:17:42;;;;;;;68.63;30.83;;;;;;;-7.78;68.35;99036.98;120494;1151;104327;-64
2021/01/19 04:20:12;;;;;;;73.93;31.03;;;;;;;-7.74;68.64;99036.09;119982;1151;104438;-70
2021/01/19 04:22:39;;;;;;;63.75;28.35;;;;;;;-7.69;68.67;99031.80;120799;1151;104382;-69
2021/01/19 04:25:09;;;;;;;66.90;27.90;;;;;;;-7.66;68.91;99026.63;119881;1151;104423;-70
2021/01/19 04:27:36;;;;;;;69.40;28.80;;;;;;;-7.60;69.34;99028.38;120108;1150;104455;-70
2021/01/19 04:30:07;;;;;;;67.50;29.77;;;;;;;-7.55;68.60;99042.16;120651;1151;104374;-69
2021/01/19 04:32:38;;;;;;;61.80;25.23;;;;;;;-7.52;68.33;99031.80;120356;1150;104489;-71
2021/01/19 04:35:07;;;;;;;69.23;30.33;;;;;;;-7.48;69.17;99037.84;119996;1151;104471;-69
2021/01/19 04:37:35;;;;;;;66.90;30.10;;;;;;;-7.43;69.16;99028.38;119914;1151;104384;-68
2021/01/19 04:40:04;;;;;;;63.45;28.80;;;;;;;-7.36;69.09;99022.34;119910;1151;104493;-69
2021/01/19 04:42:39;;;;;;;68.27;30.20;;;;;;;-7.35;69.29;99024.06;120382;1151;104451;-70
2021/01/19 04:45:11;;;;;;;61.57;24.37;;;;;;;-7.30;68.77;99024.05;120731;1151;104510;-70
2021/01/19 04:47:40;;;;;;;59.23;27.67;;;;;;;-7.27;68.54;99016.30;120283;1151;104407;-69
2021/01/19 04:50:12;;;;;;;62.63;25.53;;;;;;;-7.25;68.64;99027.49;120563;1151;104484;-69
2021/01/19 04:52:45;;;;;;;69.57;29.40;;;;;;;-7.24;68.69;99020.58;120234;1151;104547;-68
2021/01/19 04:55:20;;;;;;;55.87;23.30;;;;;;;-7.22;68.44;99026.61;119984;1153;104447;-70
2021/01/19 04:57:56;;;;;;;66.27;27.80;;;;;;;-7.25;68.65;99022.33;120202;1151;104344;-69
2021/01/19 05:00:32;;;;;;;59.80;25.15;;;;;;;-7.19;69.43;99011.10;119876;1151;104399;-71
2021/01/19 05:03:13;;;;;;;67.47;29.43;;;;;;;-7.17;68.71;99009.38;119808;1151;104626;-71
2021/01/19 05:05:39;;;;;;;56.97;25.73;;;;;;;-7.14;69.42;99014.55;119906;1151;104449;-72
2021/01/19 05:08:19;;;;;;;65.05;29.30;;;;;;;-7.13;68.72;99018.00;120021;1151;104372;-71
2021/01/19 05:11:03;;;;;;;64.33;28.03;;;;;;;-7.11;69.90;99013.66;120053;1151;104419;-72
2021/01/19 05:14:02;;;;;;;61.83;28.93;;;;;;;-7.06;68.81;99010.22;120048;1151;104435;-70
2021/01/19 05:16:36;;;;;;;60.75;27.80;;;;;;;-7.06;69.65;99005.05;120054;1151;104406;-70
2021/01/19 05:19:05;;;;;;;52.10;21.13;;;;;;;-7.07;69.75;99005.03;119856;1154;104477;-71
2021/01/19 05:21:38;;;;;;;61.40;24.67;;;;;;;-7.15;68.63;99005.06;120463;1150;104492;-69
2021/01/19 05:24:08;;;;;;;63.77;26.57;;;;;;;-7.18;69.05;99005.06;120158;1150;104373;-68
2021/01/19 05:26:36;;;;;;;60.40;25.23;;;;;;;-7.20;69.16;99006.80;120565;1151;104460;-69
2021/01/19 05:29:04;;;;;;;61.43;25.70;;;;;;;-7.19;68.91;99004.22;119871;1151;104401;-69
2021/01/19 05:31:32;;;;;;;63.40;27.30;;;;;;;-7.16;68.77;99005.92;121174;1148;104349;-69
2021/01/19 05:34:05;;;;;;;54.77;24.57;;;;;;;-7.15;69.97;99001.63;119833;1151;104446;-69
2021/01/19 05:36:38;;;;;;;61.40;26.05;;;;;;;-7.14;69.62;98993.86;119873;1151;104457;-69
2021/01/19 05:39:07;;;;;;;70.65;29.63;;;;;;;-7.14;68.83;98988.69;119949;1151;104345;-70
2021/01/19 05:41:41;;;;;;;62.40;27.23;;;;;;;-7.11;69.25;98995.56;119959;1151;104439;-69
2021/01/19 05:44:16;;;;;;;57.63;25.03;;;;;;;-7.11;69.62;98988.69;119891;1151;104468;-68
2021/01/19 05:46:48;;;;;;;57.00;25.77;;;;;;;-7.07;69.57;98994.70;121236;1151;102122;-70
2021/01/19 05:49:18;;;;;;;63.07;27.43;;;;;;;-7.05;69.67;98986.09;121912;1151;103216;-68
2021/01/19 05:51:48;;;;;;;59.50;24.33;;;;;;;-7.03;69.38;98991.23;121867;1151;102155;-69
2021/01/19 05:54:27;;;;;;;58.33;25.30;;;;;;;-7.02;68.82;98987.79;122006;1151;102711;-68
2021/01/19 05:57:06;;;;;;;70.20;28.87;;;;;;;-6.99;69.83;98985.20;120129;1151;104348;-70
2021/01/19 05:59:42;;;;;;;63.25;26.10;;;;;;;-6.94;69.85;98987.79;119860;1151;104393;-70
2021/01/19 06:02:12;;;;;;;67.90;28.90;;;;;;;-6.91;69.44;98992.92;119882;1151;104490;-69
2021/01/19 06:04:51;;;;;;;60.13;24.60;;;;;;;-6.88;69.92;98992.91;119885;1151;104409;-70
2021/01/19 06:07:26;;;;;;;59.50;25.83;;;;;;;-6.85;69.87;98992.06;119938;1151;104373;-69
2021/01/19 06:09:53;;;;;;;65.97;28.33;;;;;;;-6.87;70.00;98997.22;119906;1151;104569;-69
2021/01/19 06:12:21;;;;;;;65.47;26.30;;;;;;;-6.86;68.77;98995.52;120023;1151;104427;-69
2021/01/19 06:14:50;;;;;;;66.37;30.43;;;;;;;-6.85;69.23;98997.23;120039;1151;104888;-70
2021/01/19 06:17:22;;;;;;;62.63;28.07;;;;;;;-6.85;68.91;98992.06;120044;1151;104419;-70
2021/01/19 06:19:52;;;;;;;65.23;26.90;;;;;;;-6.85;70.26;98995.49;120061;1151;104377;-70
2021/01/19 06:22:25;;;;;;;65.17;30.63;;;;;;;-6.83;70.01;98996.35;120131;1151;104443;-68
2021/01/19 06:24:56;;;;;;;66.30;28.73;;;;;;;-6.82;69.47;99000.66;120079;1149;104447;-67
2021/01/19 06:27:23;;;;;;;67.60;29.27;;;;;;;-6.78;69.41;98994.61;120026;1151;104492;-67
2021/01/19 06:29:52;;;;;;;62.10;24.83;;;;;;;-6.76;69.98;98998.05;120041;1151;104380;-69
2021/01/19 06:32:19;;;;;;;67.40;29.90;;;;;;;-6.74;69.44;98998.91;119986;1151;104458;-70
2021/01/19 06:34:45;;;;;;;67.20;27.83;;;;;;;-6.71;70.19;99010.12;120051;1151;104487;-69
2021/01/19 06:37:27;;;;;;;62.90;26.57;;;;;;;-6.70;70.21;98994.58;120063;1151;104448;-71
2021/01/19 06:39:56;;;;;;;79.43;31.33;;;;;;;-6.71;69.36;98999.77;120056;1151;104451;-68
2021/01/19 06:42:32;;;;;;;64.70;28.37;;;;;;;-6.73;69.96;99004.97;119973;1151;104374;-68
2021/01/19 06:45:05;;;;;;;69.97;29.63;;;;;;;-6.72;69.58;99009.23;119720;1151;104375;-70
2021/01/19 06:47:43;;;;;;;56.85;25.50;;;;;;;-6.68;69.87;99003.19;119923;1151;104386;-70
2021/01/19 06:50:11;;;;;;;56.50;24.03;;;;;;;-6.66;70.50;98998.88;119942;1151;104348;-68
2021/01/19 06:52:40;;;;;;;68.07;31.20;;;;;;;-6.64;69.85;99004.91;119906;1151;104595;-69
2021/01/19 06:55:22;;;;;;;62.33;29.67;;;;;;;-6.62;70.46;99007.50;119994;1151;105000;-68
2021/01/19 06:58:08;;;;;;;63.70;29.40;;;;;;;-6.62;69.70;98995.41;120074;1151;104821;-69
2021/01/19 07:00:39;;;;;;;64.07;30.67;;;;;;;-6.60;69.69;98992.83;119973;1151;104845;-69
2021/01/19 07:03:21;;;;;;;63.13;27.33;;;;;;;-6.56;70.50;99001.43;119978;1151;106009;-68
2021/01/19 07:06:00;;;;;;;55.20;24.97;;;;;;;-6.55;69.64;98988.50;119954;1151;104348;-69
2021/01/19 07:09:00;;;;;;;58.75;26.30;;;;;;;-6.54;70.04;99002.28;119999;1151;104345;-69
2021/01/19 07:12:05;;;;;;;65.03;27.63;;;;;;;-6.54;69.55;99003.16;119980;1150;104343;-70
2021/01/19 07:15:05;;;;;;;60.77;28.50;;;;;;;-6.56;69.62;98999.72;119995;1151;104364;-70
2021/01/19 07:18:04;;;;;;;61.00;27.63;;;;;;;-6.53;70.54;98993.66;120066;1151;104393;-70
2021/01/19 07:20:32;;;;;;;68.25;29.45;;;;;;;-6.51;69.84;98995.35;120101;1151;104509;-70
2021/01/19 07:23:11;;;;;;;74.00;32.77;;;;;;;-6.48;70.47;98995.34;119965;1149;104452;-70
2021/01/19 07:25:40;;;;;;;65.73;27.80;;;;;;;-6.46;70.75;98995.35;120020;1151;104447;-70
2021/01/19 07:28:08;;;;;;;63.33;26.47;;;;;;;-6.47;70.40;98996.22;119979;1151;104347;-69
2021/01/19 07:30:35;;;;;;;68.37;30.90;;;;;;;-6.47;70.85;98996.22;119912;1151;104477;-68
2021/01/19 07:33:04;;;;;;;65.60;26.93;;;;;;;-6.43;70.23;98990.16;119982;1151;104466;-68
2021/01/19 07:35:34;;;;;;;62.63;29.83;;;;;;;-6.41;70.41;98990.14;119986;1150;104448;-68
2021/01/19 07:38:08;;;;;;;66.80;30.10;;;;;;;-6.40;70.37;98992.73;120023;1151;104442;-69
2021/01/19 07:40:47;;;;;;;72.23;31.67;;;;;;;-6.38;70.75;98990.13;119944;1151;104371;-69
2021/01/19 07:43:17;;;;;;;69.57;31.60;;;;;;;-6.38;70.07;98982.36;119965;1151;104358;-68
2021/01/19 07:45:54;;;;;;;62.20;28.73;;;;;;;-6.35;70.17;98984.94;119946;1151;104531;-69
2021/01/19 07:48:33;;;;;;;67.87;31.43;;;;;;;-6.29;70.10;98974.55;119976;1151;104440;-70
2021/01/19 07:51:14;;;;;;;67.53;31.70;;;;;;;-6.21;70.64;98966.72;120070;1151;104442;-69
2021/01/19 07:53:56;;;;;;;69.60;29.70;;;;;;;-6.20;70.61;98966.73;119991;1151;104423;-70
2021/01/19 07:56:26;;;;;;;59.73;25.43;;;;;;;-6.19;70.62;98963.27;120034;1151;104380;-68
2021/01/19 07:58:58;;;;;;;67.10;31.07;;;;;;;-6.17;70.54;98971.89;120085;1151;104450;-71
2021/01/19 08:01:32;;;;;;;67.35;31.05;;;;;;;-6.12;70.51;98961.49;120062;1151;104914;-70
2021/01/19 08:04:12;;;;;;;68.60;31.67;;;;;;;-6.04;70.24;98967.48;120038;1151;104423;-70
2021/01/19 08:06:43;;;;;;;61.80;27.60;;;;;;;-6.00;70.71;98961.39;120015;1151;104436;-71
2021/01/19 08:09:20;;;;;;;56.77;24.70;;;;;;;-5.96;70.56;98948.41;119974;1151;104476;-70
2021/01/19 08:12:06;;;;;;;62.33;28.97;;;;;;;-5.97;70.49;98955.30;119981;1151;104532;-69
2021/01/19 08:14:45;;;;;;;68.77;30.57;;;;;;;-6.01;71.06;98954.52;119952;1151;105389;-70
2021/01/19 08:17:17;;;;;;;57.43;23.77;;;;;;;-6.00;70.87;98955.36;120073;1151;104365;-70
2021/01/19 08:19:46;;;;;;;70.90;32.07;;;;;;;-6.00;70.26;98952.77;119992;1151;104371;-70
2021/01/19 08:22:23;;;;;;;63.60;29.40;;;;;;;-5.96;71.26;98953.59;119901;1151;104369;-70
2021/01/19 08:24:59;;;;;;;67.60;31.20;;;;;;;-5.94;70.49;98949.27;119884;1151;104445;-70
2021/01/19 08:27:30;;;;;;;66.47;28.77;;;;;;;-5.90;70.97;98963.88;121636;1150;104383;-69
2021/01/19 08:30:29;;;;;;;64.77;30.43;;;;;;;-5.88;70.85;98955.25;120035;1151;104372;-69
2021/01/19 08:33:00;;;;;;;65.80;28.43;;;;;;;-5.86;70.77;98956.09;120001;1151;104420;-71
2021/01/19 08:35:30;;;;;;;63.80;27.57;;;;;;;-5.84;71.12;98963.84;120006;1151;104436;-70
2021/01/19 08:38:03;;;;;;;63.53;29.17;;;;;;;-5.81;71.26;98957.79;120001;1151;104486;-69
2021/01/19 08:40:35;;;;;;;62.80;28.83;;;;;;;-5.77;70.61;98952.56;119948;1151;104400;-71
2021/01/19 08:43:07;;;;;;;59.85;28.30;;;;;;;-5.71;70.92;98947.33;119926;1151;104444;-68
2021/01/19 08:45:41;;;;;;;60.60;30.90;;;;;;;-5.63;71.08;98949.00;119751;1151;104463;-71
2021/01/19 08:48:12;;;;;;;65.43;28.27;;;;;;;-5.59;71.07;98946.36;120036;1151;104442;-70
2021/01/19 08:50:43;;;;;;;66.03;28.67;;;;;;;-5.51;70.56;98954.08;119971;1151;104468;-70
2021/01/19 08:53:16;;;;;;;58.27;26.23;;;;;;;-5.44;70.99;98945.34;119944;1151;104422;-70
2021/01/19 08:55:43;;;;;;;51.42;23.87;;;;;;;-5.40;71.53;98952.22;120001;1151;104445;-70
2021/01/19 08:58:20;;;;;;;67.67;30.27;;;;;;;-5.36;70.94;98947.88;119942;1151;104377;-70
2021/01/19 09:00:48;;;;;;;59.47;25.33;;;;;;;-5.36;71.17;98954.78;120012;1151;104423;-70
2021/01/19 09:03:20;;;;;;;60.90;28.10;;;;;;;-5.31;71.26;98946.11;120017;1151;104477;-70
2021/01/19 09:06:13;;;;;;;64.35;29.70;;;;;;;-5.29;71.53;98959.89;119962;1151;104374;-70
2021/01/19 09:08:43;;;;;;;65.42;31.02;;;;;;;-5.32;70.94;98946.98;120005;1151;104482;-72
2021/01/19 09:11:12;;;;;;;59.45;27.90;;;;;;;-5.30;71.40;98959.92;119938;1151;104454;-69
2021/01/19 09:13:58;;;;;;;56.50;22.93;;;;;;;-5.30;71.23;98946.95;119999;1148;104439;-70
2021/01/19 09:16:29;;;;;;;62.53;30.17;;;;;;;-5.29;71.18;98956.45;119934;1151;104474;-69
2021/01/19 09:18:59;;;;;;;60.30;27.93;;;;;;;-5.29;71.29;98940.89;119951;1151;104483;-70
2021/01/19 09:21:28;;;;;;;62.97;29.17;;;;;;;-5.34;71.45;98947.86;119956;1151;104350;-68
2021/01/19 09:23:58;;;;;;;61.63;28.70;;;;;;;-5.35;71.40;98939.23;119967;1151;104481;-70
2021/01/19 09:26:27;;;;;;;60.20;26.00;;;;;;;-5.35;71.31;98943.55;120008;1151;104350;-70
2021/01/19 09:29:06;;;;;;;63.77;29.07;;;;;;;-5.39;71.20;98951.34;119987;1151;104392;-70
2021/01/19 09:31:37;;;;;;;52.43;23.57;;;;;;;-5.36;70.95;98941.83;119972;1151;104449;-71
2021/01/19 09:34:04;;;;;;;67.53;30.00;;;;;;;-5.38;70.93;98947.88;119920;1151;104400;-71
2021/01/19 09:36:41;;;;;;;52.10;20.90;;;;;;;-5.36;71.48;98944.42;119975;1151;104430;-71
2021/01/19 09:39:08;;;;;;;68.67;30.87;;;;;;;-5.33;71.51;98941.80;119950;1151;104445;-71
2021/01/19 09:41:44;;;;;;;58.20;25.03;;;;;;;-5.26;71.55;98944.30;119919;1151;104455;-70
2021/01/19 09:44:16;;;;;;;64.67;27.80;;;;;;;-5.19;71.84;98941.64;119904;1151;104362;-70
2021/01/19 09:46:52;;;;;;;49.47;21.13;;;;;;;-5.09;71.41;98940.67;119875;1151;104421;-69
2021/01/19 09:49:25;;;;;;;56.57;26.47;;;;;;;-5.06;71.37;98937.17;120021;1151;104464;-70
2021/01/19 09:51:52;;;;;;;63.40;28.43;;;;;;;-5.04;71.84;98917.27;119967;1151;104374;-70
2021/01/19 09:54:23;;;;;;;61.03;27.87;;;;;;;-5.03;71.48;98922.45;120033;1151;104499;-70
2021/01/19 09:56:59;;;;;;;60.80;27.80;;;;;;;-5.04;71.46;98925.05;119988;1152;104448;-69
2021/01/19 09:59:30;;;;;;;59.23;26.93;;;;;;;-5.07;71.53;98928.55;120104;1151;104475;-69
2021/01/19 10:02:01;;;;;;;55.90;25.23;;;;;;;-5.08;72.00;98913.86;120020;1151;104447;-70
2021/01/19 10:04:31;;;;;;;58.03;27.63;;;;;;;-5.13;71.76;98911.34;119982;1151;104554;-68
2021/01/19 10:07:13;;;;;;;62.05;26.55;;;;;;;-5.15;72.01;98910.49;120058;1150;104511;-70
2021/01/19 10:09:41;;;;;;;64.20;29.60;;;;;;;-5.17;71.74;98904.47;120143;1151;104404;-69
2021/01/19 10:12:12;;;;;;;56.02;26.97;;;;;;;-5.15;71.76;98907.02;120026;1151;104346;-71
2021/01/19 10:14:44;;;;;;;57.87;26.47;;;;;;;-5.14;71.66;98903.55;119997;1151;104385;-69
2021/01/19 10:17:33;;;;;;;59.08;27.22;;;;;;;-5.17;71.56;98909.65;120036;1151;104416;-69
2021/01/19 10:20:15;;;;;;;62.23;28.53;;;;;;;-5.19;71.74;98905.34;120003;1151;104452;-70
2021/01/19 10:22:48;;;;;;;59.33;26.93;;;;;;;-5.17;71.70;98901.87;120017;1151;104351;-69
2021/01/19 10:25:29;;;;;;;63.80;28.35;;;;;;;-5.16;71.69;98913.09;120008;1151;104449;-70
2021/01/19 10:27:58;;;;;;;66.03;30.13;;;;;;;-5.18;72.60;98907.05;120009;1151;104454;-70
2021/01/19 10:30:42;;;;;;;60.47;28.33;;;;;;;-5.18;73.20;98907.93;120049;1151;104344;-69
2021/01/19 10:33:29;;;;;;;60.20;26.60;;;;;;;-5.17;73.41;98909.65;120014;1151;104567;-70
2021/01/19 10:36:05;;;;;;;60.47;27.67;;;;;;;-5.13;73.20;98905.27;119948;1151;104444;-69
2021/01/19 10:38:38;;;;;;;54.23;24.73;;;;;;;-5.12;73.38;98902.68;119911;1151;104369;-70
2021/01/19 10:41:05;;;;;;;55.50;25.37;;;;;;;-5.09;73.30;98897.42;119962;1151;104351;-69
2021/01/19 10:43:37;;;;;;;67.27;28.70;;;;;;;-5.11;73.09;98909.59;119973;1151;104464;-70
2021/01/19 10:46:04;;;;;;;61.27;29.80;;;;;;;-5.11;73.10;98899.21;120078;1151;104384;-70
2021/01/19 10:48:31;;;;;;;60.28;28.40;;;;;;;-5.05;73.83;98894.80;119908;1151;104438;-70
2021/01/19 10:51:05;;;;;;;61.77;27.07;;;;;;;-5.02;73.13;98897.36;119991;1151;105156;-70
2021/01/19 10:53:32;;;;;;;52.87;24.47;;;;;;;-5.00;72.85;98891.29;119955;1151;104365;-68
2021/01/19 10:55:59;;;;;;;55.83;25.07;;;;;;;-5.02;72.87;98895.64;119994;1151;104344;-69
2021/01/19 10:58:30;;;;;;;53.37;22.83;;;;;;;-5.07;72.76;98879.27;120092;1151;105004;-69
2021/01/19 11:00:57;;;;;;;73.23;29.90;;;;;;;-5.12;72.48;98889.70;120037;1151;104358;-67
2021/01/19 11:03:26;;;;;;;66.43;30.83;;;;;;;-5.10;72.44;98882.77;120000;1151;104475;-69
2021/01/19 11:05:55;;;;;;;63.87;28.60;;;;;;;-5.07;72.09;98874.08;119981;1151;104415;-70
2021/01/19 11:08:21;;;;;;;60.70;28.93;;;;;;;-5.06;72.47;98870.61;119899;1151;104371;-71
2021/01/19 11:10:52;;;;;;;51.80;23.93;;;;;;;-5.05;72.69;98872.33;119945;1151;104371;-70
2021/01/19 11:13:30;;;;;;;63.93;29.63;;;;;;;-5.09;72.40;98868.89;119957;1151;104479;-70
2021/01/19 11:15:58;;;;;;;64.33;30.43;;;;;;;-5.12;72.65;98874.15;120009;1151;104424;-70
2021/01/19 11:18:26;;;;;;;63.83;30.30;;;;;;;-5.11;72.49;98870.68;119948;1151;104483;-68
2021/01/19 11:20:56;;;;;;;53.50;22.93;;;;;;;-5.09;72.53;98865.45;120094;1151;104458;-70
2021/01/19 11:23:23;;;;;;;62.95;27.40;;;;;;;-5.05;72.55;98861.95;120008;1151;104446;-67
2021/01/19 11:25:50;;;;;;;61.83;29.17;;;;;;;-5.06;72.50;98864.55;120019;1151;104367;-70